Time;durP1;ratioP1;P1;durP2;ratioP2;P2;SDS_P1;SDS_P2;PMS_P1;PMS_P2;Temp;Humidity;BMP_temperature;BMP_pressure;BME280_temperature;BME280_humidity;BME280_pressure;Samples;Min_cycle;Max_cycle;Signal;HPM_P1;HPM_P2
2022/07/02 00:01:52;;;;;;;5.93;3.10;;;;;;;24.20;53.79;99908.75;4457763;32;34098;-76
2022/07/02 00:04:26;;;;;;;7.85;3.55;;;;;;;24.42;53.42;99911.09;4456759;32;33509;-75
2022/07/02 00:07:01;;;;;;;6.28;3.25;;;;;;;24.70;52.57;99918.66;4456073;32;32439;-76
2022/07/02 00:09:30;;;;;;;;;;;;;;;24.52;53.24;99914.66;4456199;32;33122;-76
2022/07/02 00:12:06;;;;;;;6.30;3.58;;;;;;;24.50;53.32;99916.91;4456424;32;34983;-76
2022/07/02 00:14:42;;;;;;;6.70;3.50;;;;;;;24.46;53.53;99910.22;4468478;32;33245;-76
2022/07/02 00:17:19;;;;;;;7.12;3.37;;;;;;;24.75;52.59;99912.16;4455697;32;33886;-75
2022/07/02 00:19:51;;;;;;;5.57;3.47;;;;;;;24.36;53.80;99907.50;4439011;32;32780;-75
2022/07/02 00:22:29;;;;;;;5.40;3.47;;;;;;;24.46;53.33;99901.81;4434107;32;33447;-76
2022/07/02 00:25:00;;;;;;;5.53;3.50;;;;;;;24.52;53.26;99889.41;4443211;32;33447;-77
2022/07/02 00:27:34;;;;;;;6.12;3.33;;;;;;;24.52;52.89;99892.22;4455652;32;34376;-76
2022/07/02 00:30:10;;;;;;;7.50;3.17;;;;;;;24.71;52.32;99894.22;4443636;32;32937;-76
2022/07/02 00:32:44;;;;;;;11.05;3.25;;;;;;;24.59;52.71;99894.66;4468307;32;34098;-77
2022/07/02 00:35:16;;;;;;;8.80;3.47;;;;;;;24.73;52.44;99903.19;4455740;32;33331;-76
2022/07/02 00:37:50;;;;;;;6.22;3.53;;;;;;;24.91;51.84;99916.47;4468774;32;34483;-75
2022/07/02 00:40:21;;;;;;;7.20;3.20;;;;;;;25.07;51.20;99918.00;4442852;32;33677;-80
2022/07/02 00:42:52;;;;;;;5.68;3.55;;;;;;;24.14;53.93;99918.31;4454085;32;32400;-81
2022/07/02 00:45:21;;;;;;;6.35;3.22;;;;;;;24.52;52.80;99909.03;4442642;32;32629;-80
2022/07/02 00:47:52;;;;;;;5.50;2.87;;;;;;;24.01;54.40;99905.00;4455784;32;32132;-78
2022/07/02 00:50:23;;;;;;;7.50;3.50;;;;;;;24.50;52.97;99904.84;4467550;32;34446;-80
2022/07/02 00:52:58;;;;;;;7.95;3.55;;;;;;;24.17;53.52;99921.38;4455388;32;32759;-79
2022/07/02 00:55:36;;;;;;;7.10;3.15;;;;;;;23.92;54.36;99908.41;4455736;32;33268;-79
2022/07/02 00:58:10;;;;;;;7.37;3.33;;;;;;;24.25;53.26;99903.09;4442933;32;32323;-79
2022/07/02 01:00:52;;;;;;;6.00;3.05;;;;;;;24.43;52.68;99891.16;4455429;32;34683;-78
2022/07/02 01:03:29;;;;;;;5.18;3.00;;;;;;;24.29;53.12;99895.78;4455538;32;34255;-79
2022/07/02 01:06:06;;;;;;;7.95;3.42;;;;;;;24.04;53.63;99904.41;4455787;32;33931;-78
2022/07/02 01:11:42;;;;;;;6.93;3.17;;;;;;;24.05;53.55;99915.31;4467437;32;33603;-79
2022/07/02 01:14:14;;;;;;;6.15;3.35;;;;;;;23.79;54.21;99922.25;4454927;32;33865;-80
2022/07/02 01:16:50;;;;;;;6.12;3.25;;;;;;;23.92;53.77;99933.66;4441598;32;33229;-78
2022/07/02 01:19:28;;;;;;;5.10;2.90;;;;;;;23.53;54.77;99914.00;4442424;32;33272;-78
2022/07/02 01:22:18;;;;;;;5.82;2.78;;;;;;;23.60;54.36;99908.06;4454462;32;34753;-79
2022/07/02 01:24:54;;;;;;;5.25;2.40;;;;;;;23.66;54.05;99918.13;4454084;32;32821;-79
2022/07/02 01:27:29;;;;;;;;;;;;;;;23.78;53.38;99923.38;4443992;32;32962;-80
2022/07/02 01:30:03;;;;;;;4.15;1.80;;;;;;;23.99;52.84;99941.75;4444695;32;33496;-78
2022/07/02 01:32:40;;;;;;;5.12;1.60;;;;;;;24.01;52.25;99949.88;4443663;32;32968;-79
2022/07/02 01:35:14;;;;;;;8.48;1.60;;;;;;;23.07;54.72;99963.75;4444963;32;32777;-80
2022/07/02 01:37:51;;;;;;;5.95;1.60;;;;;;;23.36;53.62;99974.31;4457041;32;34032;-79
2022/07/02 01:40:22;;;;;;;4.03;1.33;;;;;;;22.33;56.32;99970.84;4445163;32;33322;-80
2022/07/02 01:42:58;;;;;;;5.15;1.45;;;;;;;22.95;54.50;99972.47;4444433;32;33788;-80
2022/07/02 01:45:31;;;;;;;4.22;1.60;;;;;;;22.09;56.21;99988.47;4457535;32;34192;-80
2022/07/02 01:48:05;;;;;;;3.55;1.55;;;;;;;21.51;57.83;99973.75;4458093;32;34114;-80
2022/07/02 01:50:36;;;;;;;3.20;1.40;;;;;;;21.78;56.89;99952.03;4456704;32;33851;-80
2022/07/02 01:53:10;;;;;;;2.58;1.20;;;;;;;21.83;56.54;99960.44;4444499;32;34610;-80
2022/07/02 01:55:40;;;;;;;3.37;1.20;;;;;;;21.53;57.29;99977.09;4456391;32;33141;-80
2022/07/02 01:58:19;;;;;;;5.62;1.40;;;;;;;21.89;56.25;99945.34;4444160;32;32696;-80
2022/07/02 02:00:50;;;;;;;4.22;1.20;;;;;;;21.76;56.45;99936.66;4456908;32;33659;-80
2022/07/02 02:03:19;;;;;;;6.72;1.48;;;;;;;21.26;58.33;99935.44;4456144;32;34201;-80
2022/07/02 02:05:54;;;;;;;5.72;1.50;;;;;;;21.08;58.48;99900.44;4457589;32;34896;-80
2022/07/02 02:08:27;;;;;;;5.85;1.40;;;;;;;21.49;57.30;99878.22;4444404;32;32691;-80
2022/07/02 02:11:05;;;;;;;4.53;1.65;;;;;;;21.09;58.42;99856.63;4456778;32;33733;-80
2022/07/02 02:13:34;;;;;;;3.15;1.50;;;;;;;20.90;59.38;99845.94;4469422;32;34183;-81
2022/07/02 02:16:04;;;;;;;2.33;1.17;;;;;;;21.19;58.85;99843.53;4456799;32;34090;-80
2022/07/02 02:18:38;;;;;;;4.05;1.20;;;;;;;21.25;58.61;99842.47;4438329;32;31581;-80
2022/07/02 02:21:07;;;;;;;5.12;2.03;;;;;;;21.47;58.17;99844.16;4450709;32;33777;-80
2022/07/02 02:23:42;;;;;;;3.67;1.55;;;;;;;21.44;58.11;99850.31;4438140;32;32430;-80
2022/07/02 02:26:13;;;;;;;2.33;1.40;;;;;;;21.49;57.99;99864.25;4455378;32;34848;-81
2022/07/02 02:28:44;;;;;;;4.18;1.33;;;;;;;21.19;58.92;99843.53;4450109;32;33523;-80
2022/07/02 02:31:20;;;;;;;4.25;1.40;;;;;;;21.39;58.45;99825.19;4443003;32;33235;-81
2022/07/02 02:33:54;;;;;;;;;;;;;;;21.16;59.31;99844.06;4450594;32;34483;-80
2022/07/02 02:36:24;;;;;;;3.08;1.52;;;;;;;21.17;59.39;99845.75;4439387;32;32959;-80
2022/07/02 02:38:57;;;;;;;7.45;1.55;;;;;;;21.07;59.89;99867.22;4449609;32;33408;-80
2022/07/02 02:41:25;;;;;;;4.97;1.77;;;;;;;21.04;60.03;99883.38;4449973;32;33819;-81
2022/07/02 02:43:58;;;;;;;4.62;1.65;;;;;;;21.17;59.22;99884.84;4437210;32;34127;-80
2022/07/02 02:46:31;;;;;;;3.67;1.30;;;;;;;21.12;59.55;99901.56;4448423;32;32388;-80
2022/07/02 02:49:05;;;;;;;4.22;1.50;;;;;;;20.61;61.00;99904.13;4440457;32;33289;-80
2022/07/02 02:51:36;;;;;;;3.33;1.50;;;;;;;20.62;61.16;99916.94;4440996;32;34661;-80
2022/07/02 02:54:09;;;;;;;5.82;1.60;;;;;;;20.59;60.96;99927.78;4429527;32;33061;-80
2022/07/02 02:56:42;;;;;;;9.23;1.67;;;;;;;20.43;61.38;99929.62;4444318;32;34177;-80
2022/07/02 02:59:17;;;;;;;4.10;1.45;;;;;;;20.66;60.71;99929.25;4431127;32;32767;-81
2022/07/02 03:01:49;;;;;;;7.47;1.93;;;;;;;20.51;61.41;99920.78;4443412;32;32764;-80
2022/07/02 03:04:20;;;;;;;3.25;1.80;;;;;;;20.30;62.01;99930.91;4430533;32;34292;-80
2022/07/02 03:06:52;;;;;;;5.05;1.80;;;;;;;20.23;62.21;99941.44;4443729;32;33823;-80
2022/07/02 03:09:28;;;;;;;3.67;1.73;;;;;;;20.68;60.73;99924.25;4430571;32;32651;-80
2022/07/02 03:11:57;;;;;;;8.02;1.90;;;;;;;20.77;60.45;99932.09;4430904;32;32621;-80
2022/07/02 03:14:30;;;;;;;3.55;1.70;;;;;;;20.77;60.60;99944.09;4443083;32;34310;-80
2022/07/02 03:17:02;;;;;;;6.35;1.62;;;;;;;20.96;60.24;99958.41;4443305;32;34010;-80
2022/07/02 03:19:37;;;;;;;6.28;1.70;;;;;;;20.79;60.63;99952.19;4443148;32;33921;-80
2022/07/02 03:22:11;;;;;;;5.12;1.83;;;;;;;20.42;61.83;99960.56;4444165;32;33749;-80
2022/07/02 03:24:42;;;;;;;4.32;1.73;;;;;;;20.31;62.44;99968.81;4443383;32;36121;-80
2022/07/02 03:27:13;;;;;;;3.92;1.70;;;;;;;20.30;62.62;99966.28;4442847;32;32833;-80
2022/07/02 03:29:48;;;;;;;7.05;2.20;;;;;;;20.29;62.94;99942.31;4443130;32;32865;-79
2022/07/02 03:32:18;;;;;;;11.40;2.03;;;;;;;20.11;63.39;99956.69;4430876;32;33506;-80
2022/07/02 03:34:53;;;;;;;3.53;1.90;;;;;;;20.46;62.21;99970.94;4443066;32;34089;-80
2022/07/02 03:37:28;;;;;;;4.72;1.70;;;;;;;20.37;62.33;99983.66;4442826;32;34703;-79
2022/07/02 03:40:02;;;;;;;3.53;1.90;;;;;;;20.26;62.66;99996.66;4439167;32;32371;-81
2022/07/02 03:42:34;;;;;;;3.30;2.03;;;;;;;20.51;62.17;99995.22;4440323;32;32896;-80
2022/07/02 03:45:05;;;;;;;4.80;1.87;;;;;;;20.05;63.65;99998.44;4439678;32;35312;-80
2022/07/02 03:47:37;;;;;;;8.70;1.83;;;;;;;20.21;63.03;100002.16;4439744;32;34907;-80
2022/07/02 03:50:05;;;;;;;3.72;1.85;;;;;;;20.33;62.78;99993.63;4439357;32;33608;-80
2022/07/02 03:52:38;;;;;;;4.07;1.75;;;;;;;20.41;62.42;100001.56;4427475;32;33450;-80
2022/07/02 03:55:09;;;;;;;3.65;1.70;;;;;;;20.16;63.25;100026.38;4431155;32;34212;-80
2022/07/02 03:57:40;;;;;;;6.70;2.20;;;;;;;20.53;61.99;100032.88;4440819;32;34683;-80
2022/07/02 04:00:11;;;;;;;4.85;1.70;;;;;;;19.98;63.83;100038.75;4427848;32;31611;-80
2022/07/02 04:02:42;;;;;;;3.22;1.80;;;;;;;20.18;62.96;100049.25;4440306;32;32441;-80
2022/07/02 04:05:19;;;;;;;5.32;1.90;;;;;;;20.30;62.61;100041.56;4428131;32;33726;-80
2022/07/02 04:07:56;;;;;;;5.00;1.60;;;;;;;20.56;61.61;100034.31;4440041;32;33833;-79
2022/07/02 04:10:27;;;;;;;4.80;1.85;;;;;;;20.11;63.05;100051.44;4452806;32;33972;-80
2022/07/02 04:13:04;;;;;;;6.07;2.25;;;;;;;20.32;62.78;100056.06;4428811;32;32246;-80
2022/07/02 04:15:34;;;;;;;6.10;2.17;;;;;;;20.05;63.75;100056.09;4427897;32;32938;-80
2022/07/02 04:18:08;;;;;;;3.50;1.70;;;;;;;20.56;61.97;100063.03;4440169;32;34100;-80
2022/07/02 04:20:39;;;;;;;3.70;1.70;;;;;;;20.28;62.75;100055.75;4440039;32;33847;-80
2022/07/02 04:23:10;;;;;;;4.97;1.98;;;;;;;20.78;60.99;100053.72;4427654;32;31981;-80
2022/07/02 04:25:54;;;;;;;6.25;2.10;;;;;;;20.99;60.26;100063.91;4440811;32;33083;-80
2022/07/02 04:28:28;;;;;;;5.55;1.90;;;;;;;21.00;60.41;100071.16;4440416;32;34912;-80
2022/07/02 04:30:58;;;;;;;6.40;2.22;;;;;;;20.75;61.25;100060.69;4440539;32;34107;-80
2022/07/02 04:33:33;;;;;;;6.25;2.08;;;;;;;20.85;60.71;100060.72;4440180;32;33750;-80
2022/07/02 04:36:04;;;;;;;4.62;2.10;;;;;;;20.75;60.72;100063.47;4440652;32;34647;-81
2022/07/02 04:38:41;;;;;;;4.03;2.03;;;;;;;20.91;60.47;100070.81;4440457;32;33421;-80
2022/07/02 04:41:12;;;;;;;10.20;1.92;;;;;;;21.03;60.45;100073.41;4440382;32;34560;-80
2022/07/02 04:43:43;;;;;;;7.70;2.20;;;;;;;21.26;59.46;100092.59;4439618;32;32057;-80
2022/07/02 04:46:13;;;;;;;4.55;2.30;;;;;;;20.94;60.40;100083.41;4440533;32;34717;-80
2022/07/02 04:48:47;;;;;;;3.50;2.00;;;;;;;20.92;60.69;100089.25;4428385;32;32379;-79
2022/07/02 04:51:17;;;;;;;4.47;2.50;;;;;;;21.02;60.26;100077.31;4442965;32;34098;-79
2022/07/02 04:53:47;;;;;;;3.87;2.03;;;;;;;20.94;60.47;100091.78;4443163;32;34150;-78
2022/07/02 04:56:24;;;;;;;4.93;2.53;;;;;;;21.29;59.55;100089.28;4440583;32;33336;-75
2022/07/02 04:58:59;;;;;;;5.20;2.03;;;;;;;21.42;59.11;100099.13;4441361;32;34294;-75
2022/07/02 05:01:28;;;;;;;4.95;2.50;;;;;;;21.42;59.00;100082.38;4452730;32;33913;-76
2022/07/02 05:04:01;;;;;;;5.12;2.45;;;;;;;21.72;58.20;100101.22;4454534;32;33718;-75
2022/07/02 05:06:32;;;;;;;4.22;2.60;;;;;;;21.81;57.67;100107.12;4455833;32;35770;-78
2022/07/02 05:08:59;;;;;;;5.30;3.10;;;;;;;21.23;59.38;100101.50;4441642;32;33875;-78
2022/07/02 05:11:29;;;;;;;5.97;2.60;;;;;;;21.43;58.87;100113.94;4441406;32;33551;-78
2022/07/02 05:13:57;;;;;;;5.18;2.50;;;;;;;21.46;58.79;100121.72;4441373;32;33759;-79
2022/07/02 05:16:32;;;;;;;4.40;2.50;;;;;;;21.20;59.55;100117.94;4442128;32;33721;-79
2022/07/02 05:19:02;;;;;;;5.22;2.60;;;;;;;21.48;59.10;100109.19;4454208;32;33825;-78
2022/07/02 05:21:36;;;;;;;4.55;2.42;;;;;;;21.67;58.50;100126.31;4441567;32;33325;-78
2022/07/02 05:24:06;;;;;;;5.87;2.65;;;;;;;21.97;57.45;100134.03;4441984;32;33781;-78
2022/07/02 05:26:40;;;;;;;5.75;2.45;;;;;;;21.80;57.75;100148.19;4441736;32;34498;-78
2022/07/02 05:29:14;;;;;;;6.28;2.70;;;;;;;21.91;57.19;100147.12;4441623;32;34203;-78
2022/07/02 05:31:47;;;;;;;4.75;2.50;;;;;;;22.16;56.77;100153.94;4453949;32;33410;-78
2022/07/02 05:34:20;;;;;;;6.95;2.78;;;;;;;21.93;57.30;100153.28;4441849;32;32417;-78
2022/07/02 05:36:50;;;;;;;4.32;2.20;;;;;;;22.25;56.48;100161.53;4441545;32;32964;-78
2022/07/02 05:39:18;;;;;;;8.20;2.92;;;;;;;22.40;56.38;100177.53;4441261;32;32558;-78
2022/07/02 05:41:55;;;;;;;4.72;2.65;;;;;;;22.11;56.83;100181.88;4441802;32;34345;-78
2022/07/02 05:44:29;;;;;;;4.53;2.55;;;;;;;22.25;56.62;100194.25;4441732;32;32331;-78
2022/07/02 05:47:01;;;;;;;7.05;2.80;;;;;;;22.63;55.91;100199.41;4441290;32;33635;-78
2022/07/02 05:49:41;;;;;;;5.75;3.05;;;;;;;22.82;54.96;100207.31;4441456;32;34535;-78
2022/07/02 05:52:14;;;;;;;6.72;3.55;;;;;;;22.72;55.21;100224.06;4440756;32;31921;-78
2022/07/02 05:54:44;;;;;;;5.65;3.28;;;;;;;22.39;55.92;100198.22;4441494;32;33732;-78
2022/07/02 05:57:12;;;;;;;5.55;2.92;;;;;;;22.68;55.40;100193.00;4441264;32;34399;-77
2022/07/02 05:59:45;;;;;;;8.88;2.90;;;;;;;22.33;56.17;100196.53;4441728;32;32517;-76
2022/07/02 06:02:15;;;;;;;9.27;2.92;;;;;;;22.35;55.97;100197.09;4465528;32;34048;-77
2022/07/02 06:04:48;;;;;;;5.43;2.92;;;;;;;22.24;56.67;100209.34;4471226;32;34533;-76
2022/07/02 06:07:39;;;;;;;5.50;2.85;;;;;;;22.45;55.77;100191.53;4469057;32;34357;-76
2022/07/02 06:10:07;;;;;;;6.05;2.58;;;;;;;23.01;54.86;100183.25;4470060;32;34551;-77
2022/07/02 06:12:40;;;;;;;5.15;2.53;;;;;;;23.35;53.53;100179.91;4456785;32;33911;-76
2022/07/02 06:15:11;;;;;;;6.10;2.42;;;;;;;23.39;53.02;100187.47;4469722;32;34621;-76
2022/07/02 06:17:38;;;;;;;5.18;2.60;;;;;;;23.52;53.02;100197.22;4456661;32;32564;-77
2022/07/02 06:20:10;;;;;;;4.75;2.62;;;;;;;23.75;52.33;100196.66;4456842;32;33390;-77
2022/07/02 06:22:38;;;;;;;5.72;2.85;;;;;;;23.59;52.18;100190.25;4456583;32;34310;-76
2022/07/02 06:25:12;;;;;;;9.07;2.87;;;;;;;23.21;52.95;100213.22;4469298;32;33763;-76
2022/07/02 06:27:42;;;;;;;4.93;2.70;;;;;;;23.26;53.14;100202.87;4457208;32;34513;-77
2022/07/02 06:30:11;;;;;;;6.10;2.60;;;;;;;23.47;52.46;100208.44;4456190;32;33481;-77
2022/07/02 06:32:48;;;;;;;5.22;2.67;;;;;;;23.21;53.54;100202.87;4469150;32;33360;-77
2022/07/02 06:35:19;;;;;;;4.90;3.00;;;;;;;23.53;52.69;100196.97;4456987;32;34588;-77
2022/07/02 06:37:47;;;;;;;4.00;2.47;;;;;;;23.71;51.91;100203.13;4456771;32;35171;-77
2022/07/02 06:40:17;;;;;;;4.93;2.90;;;;;;;23.78;51.50;100204.50;4456534;32;33421;-76
2022/07/02 06:42:47;;;;;;;4.22;2.45;;;;;;;23.95;51.40;100210.63;4469416;32;33235;-77
2022/07/02 06:45:35;;;;;;;6.00;2.42;;;;;;;23.86;51.20;100217.94;4458667;32;35576;-76
2022/07/02 06:48:12;;;;;;;8.07;3.20;;;;;;;23.81;51.76;100211.50;4456403;32;34571;-76
2022/07/02 06:50:41;;;;;;;6.50;2.55;;;;;;;24.04;51.02;100207.25;4469458;32;34471;-76
2022/07/02 06:53:14;;;;;;;7.60;3.03;;;;;;;24.45;50.33;100210.75;4469134;32;33232;-77
2022/07/02 06:55:47;;;;;;;4.40;2.60;;;;;;;24.24;50.29;100223.97;4470539;32;34304;-76
2022/07/02 06:58:24;;;;;;;4.70;2.58;;;;;;;24.50;49.70;100219.97;4469289;32;35319;-76
2022/07/02 07:00:57;;;;;;;5.32;2.58;;;;;;;24.53;49.81;100218.56;4455424;32;33925;-76
2022/07/02 07:03:28;;;;;;;5.62;2.80;;;;;;;24.12;50.43;100217.84;4456227;32;33350;-76
2022/07/02 07:06:00;;;;;;;4.72;2.70;;;;;;;24.70;48.97;100221.00;4440432;32;34760;-76
2022/07/02 07:08:30;;;;;;;4.72;2.95;;;;;;;24.68;48.97;100223.25;4453964;32;35065;-75
2022/07/02 07:10:58;;;;;;;6.22;2.85;;;;;;;23.96;50.31;100234.75;4453643;32;34115;-75
2022/07/02 07:13:25;;;;;;;5.20;2.50;;;;;;;24.45;49.81;100219.16;4453601;32;32982;-75
2022/07/02 07:15:55;;;;;;;4.53;2.85;;;;;;;24.41;49.34;100232.94;4454843;32;34237;-75
2022/07/02 07:18:25;;;;;;;5.15;2.70;;;;;;;24.80;48.41;100237.75;4453727;32;34459;-75
2022/07/02 07:20:53;;;;;;;4.45;2.65;;;;;;;24.50;49.39;100227.56;4455002;32;34017;-75
2022/07/02 07:23:20;;;;;;;5.40;2.60;;;;;;;24.67;49.45;100235.62;4452618;32;34052;-74
2022/07/02 07:25:51;;;;;;;3.72;2.28;;;;;;;24.73;48.30;100232.47;4455044;32;33715;-75
2022/07/02 07:28:19;;;;;;;6.37;2.67;;;;;;;24.76;48.11;100245.94;4453818;32;34830;-73
2022/07/02 07:30:47;;;;;;;6.43;2.50;;;;;;;25.08;48.04;100251.09;4453865;32;34600;-75
2022/07/02 07:33:17;;;;;;;5.72;2.75;;;;;;;25.17;47.96;100248.50;4453343;32;33989;-75
2022/07/02 07:35:45;;;;;;;6.40;3.10;;;;;;;24.86;47.97;100250.66;4456213;32;34297;-75
2022/07/02 07:38:12;;;;;;;6.28;3.10;;;;;;;25.11;47.39;100258.09;4461399;32;34440;-75
2022/07/02 07:40:43;;;;;;;6.47;2.97;;;;;;;25.07;47.50;100263.47;4468895;32;34091;-78
2022/07/02 07:43:11;;;;;;;4.93;2.90;;;;;;;25.35;47.04;100267.47;4449114;32;34121;-77
2022/07/02 07:45:38;;;;;;;5.10;2.80;;;;;;;25.53;46.63;100257.47;4447196;32;33938;-78
2022/07/02 07:48:10;;;;;;;5.18;2.85;;;;;;;25.42;46.59;100253.91;4446016;32;34961;-80
2022/07/02 07:50:40;;;;;;;6.00;2.80;;;;;;;25.53;46.42;100252.69;4450026;32;34660;-79
2022/07/02 07:53:07;;;;;;;6.07;2.72;;;;;;;25.79;46.98;100250.53;4445791;32;33331;-79
2022/07/02 07:55:36;;;;;;;5.50;2.67;;;;;;;26.18;45.55;100256.00;4457995;32;34540;-80
2022/07/02 07:58:04;;;;;;;4.12;2.50;;;;;;;25.94;45.69;100263.59;4447104;32;35862;-80
2022/07/02 08:00:32;;;;;;;5.15;3.08;;;;;;;26.09;44.92;100254.13;4453057;32;32547;-80
2022/07/02 08:03:00;;;;;;;6.20;2.55;;;;;;;25.93;44.86;100259.12;4446891;32;34752;-80
2022/07/02 08:05:28;;;;;;;7.43;2.95;;;;;;;25.96;45.36;100255.72;4448063;32;34773;-79
2022/07/02 08:07:56;;;;;;;6.78;3.22;;;;;;;26.00;45.02;100256.75;4430247;32;34026;-80
2022/07/02 08:10:24;;;;;;;8.45;3.00;;;;;;;25.85;45.25;100259.75;4445678;32;34599;-80
2022/07/02 08:12:51;;;;;;;5.90;2.92;;;;;;;26.00;45.07;100255.94;4447300;32;31243;-80
2022/07/02 08:15:19;;;;;;;6.25;2.70;;;;;;;26.48;44.26;100248.38;4449609;32;34617;-81
2022/07/02 08:17:47;;;;;;;4.60;2.72;;;;;;;26.22;44.50;100253.44;4446495;32;34015;-80
2022/07/02 08:20:14;;;;;;;7.55;3.28;;;;;;;26.33;44.10;100252.22;4461941;32;33930;-81
2022/07/02 08:22:46;;;;;;;6.37;2.80;;;;;;;26.36;44.02;100256.41;4442262;32;31936;-81
2022/07/02 08:25:17;;;;;;;4.68;2.78;;;;;;;26.54;43.77;100252.81;4449077;32;34470;-80
2022/07/02 08:27:46;;;;;;;6.07;2.75;;;;;;;26.66;43.60;100246.72;4461332;32;35221;-81
2022/07/02 08:30:13;;;;;;;6.85;2.90;;;;;;;26.72;43.25;100245.50;4447327;32;32910;-81
2022/07/02 08:32:44;;;;;;;5.43;2.58;;;;;;;27.01;42.68;100239.78;4448517;32;33472;-81
2022/07/02 08:35:18;;;;;;;8.50;3.12;;;;;;;26.97;42.72;100253.63;4448597;32;34083;-80
2022/07/02 08:37:49;;;;;;;9.20;3.20;;;;;;;26.87;43.21;100248.09;4460794;32;34893;-81
2022/07/02 08:40:22;;;;;;;5.50;3.10;;;;;;;27.14;42.36;100253.09;4455294;32;33652;-81
2022/07/02 08:42:56;;;;;;;7.37;3.30;;;;;;;27.42;42.83;100252.06;4475909;32;33369;-82
2022/07/02 08:45:32;;;;;;;7.75;3.62;;;;;;;27.46;41.56;100246.63;4453783;32;33667;-81
2022/07/02 08:48:04;;;;;;;9.77;3.17;;;;;;;27.63;41.90;100238.47;4459121;32;34446;-81
2022/07/02 08:50:35;;;;;;;4.97;2.90;;;;;;;27.64;41.70;100242.12;4463160;32;34787;-81
2022/07/02 08:53:05;;;;;;;12.50;3.47;;;;;;;27.99;40.46;100246.28;4460888;32;33482;-81
2022/07/02 08:55:34;;;;;;;4.80;2.75;;;;;;;27.66;41.27;100243.50;4448002;32;34485;-81
2022/07/02 08:58:04;;;;;;;6.75;3.10;;;;;;;27.66;41.56;100249.16;4448403;32;34539;-82
2022/07/02 09:00:32;;;;;;;11.95;3.17;;;;;;;28.11;40.76;100236.16;4461778;32;34028;-82
2022/07/02 09:03:00;;;;;;;7.78;3.22;;;;;;;28.27;39.64;100238.72;4448241;32;32239;-82
2022/07/02 09:05:29;;;;;;;6.12;3.28;;;;;;;28.30;39.48;100241.75;4460316;32;33676;-78
2022/07/02 09:07:57;;;;;;;6.30;3.20;;;;;;;27.91;39.97;100247.84;4460855;32;34549;-78
2022/07/02 09:10:26;;;;;;;7.05;3.60;;;;;;;28.27;39.94;100236.72;4450918;32;33623;-81
2022/07/02 09:12:55;;;;;;;8.10;3.40;;;;;;;28.20;39.91;100248.41;4452646;32;31949;-81
2022/07/02 09:15:26;;;;;;;5.25;3.50;;;;;;;28.10;39.70;100254.25;4454901;32;33859;-80
2022/07/02 09:17:53;;;;;;;6.45;3.83;;;;;;;28.35;39.49;100233.16;4462121;32;35076;-78
2022/07/02 09:20:24;;;;;;;8.85;3.30;;;;;;;28.45;39.11;100227.31;4439166;32;34562;-82
2022/07/02 09:22:53;;;;;;;6.85;3.20;;;;;;;28.89;39.10;100222.12;4467792;32;33781;-82
2022/07/02 09:25:24;;;;;;;8.13;2.97;;;;;;;29.07;39.37;100221.97;4451491;32;34620;-78
2022/07/02 09:28:01;;;;;;;8.18;3.10;;;;;;;29.00;38.27;100232.88;4451832;32;33090;-79
2022/07/02 09:30:48;;;;;;;6.37;3.30;;;;;;;29.30;38.34;100228.47;4452438;32;33956;-79
2022/07/02 09:33:42;;;;;;;7.30;3.70;;;;;;;29.54;37.55;100231.00;4440205;32;32444;-77
2022/07/02 09:36:34;;;;;;;6.85;3.22;;;;;;;29.61;37.23;100227.72;4451719;32;34659;-76
2022/07/02 09:39:43;;;;;;;7.70;3.45;;;;;;;29.79;36.70;100221.84;4439219;32;34006;-76
2022/07/02 09:42:46;;;;;;;9.60;3.08;;;;;;;29.69;36.58;100221.28;4439998;32;33737;-80
2022/07/02 09:45:28;;;;;;;7.30;3.58;;;;;;;29.82;36.71;100238.19;4461018;32;32581;-81
2022/07/02 09:48:14;;;;;;;9.02;3.53;;;;;;;30.05;36.43;100240.97;4441131;32;33892;-81
2022/07/02 09:51:19;;;;;;;8.82;3.40;;;;;;;29.83;36.08;100227.69;4450468;32;34607;-81
2022/07/02 09:53:55;;;;;;;4.65;3.15;;;;;;;30.28;35.68;100224.75;4464419;32;34424;-80
2022/07/02 09:56:24;;;;;;;7.03;3.45;;;;;;;30.46;35.15;100235.84;4448397;32;31563;-80
2022/07/02 09:58:52;;;;;;;4.37;2.90;;;;;;;30.26;35.33;100239.25;4454075;32;34169;-81
2022/07/02 10:01:23;;;;;;;7.65;3.05;;;;;;;30.26;35.33;100239.25;4462682;32;34332;-81
2022/07/02 10:03:56;;;;;;;5.32;2.80;;;;;;;30.57;35.17;100235.50;4449450;32;32568;-81
2022/07/02 10:06:23;;;;;;;7.47;3.40;;;;;;;30.31;34.66;100241.09;4450301;32;33489;-81
2022/07/02 10:08:57;;;;;;;5.05;2.90;;;;;;;30.96;34.19;100231.78;4438696;32;32223;-81
2022/07/02 10:11:24;;;;;;;5.95;2.83;;;;;;;30.41;34.34;100237.97;4452065;32;34614;-81
2022/07/02 10:13:54;;;;;;;4.95;2.72;;;;;;;30.55;34.55;100229.34;4449023;32;33436;-81
2022/07/02 10:16:25;;;;;;;8.90;2.90;;;;;;;30.71;34.09;100216.41;4461600;32;33537;-81
2022/07/02 10:18:54;;;;;;;6.87;3.10;;;;;;;30.74;34.91;100224.25;4461146;32;33477;-81
2022/07/02 10:21:23;;;;;;;6.07;3.22;;;;;;;31.36;34.62;100221.13;4453568;32;33868;-80
2022/07/02 10:23:51;;;;;;;5.05;2.78;;;;;;;31.40;33.46;100222.12;4450921;32;32342;-80
2022/07/02 10:26:21;;;;;;;5.15;2.78;;;;;;;31.48;33.31;100226.97;4448987;32;31916;-80
2022/07/02 10:28:51;;;;;;;4.72;2.80;;;;;;;31.55;32.95;100232.97;4434623;32;33654;-80
2022/07/02 10:31:22;;;;;;;6.05;3.00;;;;;;;31.50;32.56;100224.63;4443321;32;33985;-80
2022/07/02 10:33:55;;;;;;;4.25;2.65;;;;;;;31.99;32.44;100216.66;4442045;32;32512;-81
2022/07/02 10:36:22;;;;;;;6.57;2.60;;;;;;;31.83;31.43;100221.25;4449452;32;33574;-81
2022/07/02 10:38:57;;;;;;;6.47;2.80;;;;;;;32.20;32.03;100217.59;4453363;32;34367;-82
2022/07/02 10:41:30;;;;;;;5.32;2.60;;;;;;;32.06;32.08;100216.97;4461791;32;35308;-82
2022/07/02 10:44:00;;;;;;;6.55;2.65;;;;;;;32.23;31.37;100211.28;4467733;32;34172;-83
2022/07/02 10:46:34;;;;;;;7.12;3.20;;;;;;;32.52;30.91;100215.28;4445238;32;34237;-83
2022/07/02 10:49:04;;;;;;;6.65;3.05;;;;;;;32.25;30.95;100227.97;4460688;32;32994;-83
2022/07/02 10:51:34;;;;;;;6.10;3.10;;;;;;;32.38;30.95;100210.69;4449679;32;32953;-82
2022/07/02 10:54:06;;;;;;;7.43;2.80;;;;;;;32.34;30.65;100203.19;4448385;32;34706;-82
2022/07/02 10:57:19;;;;;;;8.57;2.70;;;;;;;32.20;30.86;100216.75;4461128;32;33630;-84
2022/07/02 11:00:40;;;;;;;4.87;2.80;;;;;;;32.37;30.41;100203.34;4458047;32;33380;-83
2022/07/02 11:03:25;;;;;;;4.50;2.50;;;;;;;32.83;29.69;100203.59;4457417;32;34041;-83
2022/07/02 11:05:55;;;;;;;;;;;;;;;32.64;29.77;100210.53;4442054;32;31932;-81
2022/07/02 11:08:44;;;;;;;4.93;2.70;;;;;;;32.49;29.92;100207.47;4440930;32;32482;-82
2022/07/02 11:11:18;;;;;;;4.80;2.53;;;;;;;32.52;29.61;100203.91;4468841;32;34252;-82
2022/07/02 11:13:50;;;;;;;6.37;2.42;;;;;;;32.27;30.21;100200.88;4456269;32;33049;-82
2022/07/02 11:16:26;;;;;;;4.55;2.50;;;;;;;32.81;29.49;100189.72;4470127;32;34092;-82
2022/07/02 11:19:00;;;;;;;6.37;3.35;;;;;;;32.60;29.76;100191.66;4456593;32;33325;-84
2022/07/02 11:21:29;;;;;;;4.93;2.53;;;;;;;32.98;30.13;100198.12;4456673;32;33929;-80
2022/07/02 11:23:57;;;;;;;4.50;2.65;;;;;;;33.02;29.65;100187.72;4456236;32;34549;-83
2022/07/02 11:26:32;;;;;;;6.35;2.80;;;;;;;32.87;29.44;100194.00;4455585;32;33638;-82
2022/07/02 11:29:04;;;;;;;5.53;2.65;;;;;;;33.36;28.60;100192.28;4456816;32;34202;-80
2022/07/02 11:31:36;;;;;;;4.05;2.40;;;;;;;33.14;28.47;100192.63;4456609;32;34360;-81
2022/07/02 11:34:04;;;;;;;6.40;2.60;;;;;;;33.29;28.92;100180.63;4457248;32;35163;-81
2022/07/02 11:36:32;;;;;;;4.50;2.40;;;;;;;33.22;28.58;100183.16;4456782;32;33813;-80
2022/07/02 11:39:10;;;;;;;5.18;2.60;;;;;;;33.49;28.74;100187.47;4469426;32;33519;-80
2022/07/02 11:41:39;;;;;;;8.63;2.35;;;;;;;33.50;28.65;100182.59;4457124;32;32462;-81
2022/07/02 11:44:15;;;;;;;5.43;2.55;;;;;;;33.34;28.24;100186.09;4456762;32;34099;-81
2022/07/02 11:46:53;;;;;;;8.27;2.40;;;;;;;33.28;28.22;100192.34;4472301;32;33659;-80
2022/07/02 11:49:23;;;;;;;5.97;2.60;;;;;;;33.61;28.35;100178.97;4457493;32;198403;-80
2022/07/02 11:51:52;;;;;;;5.43;2.33;;;;;;;33.55;28.50;100174.66;4459628;32;32081;-81
2022/07/02 11:54:26;;;;;;;5.80;2.62;;;;;;;33.03;28.47;100182.84;4460056;32;33618;-80
2022/07/02 11:56:54;;;;;;;5.62;2.47;;;;;;;33.08;28.79;100176.13;4472723;32;34828;-81
2022/07/02 11:59:26;;;;;;;4.43;2.30;;;;;;;33.67;28.33;100186.09;4458788;32;33444;-80